Terminal Aerodrome Forecast
Issued by NWS Sioux Falls, SD

Home | Current Version | Previous Version | Graphics & Text | Print | Product List | Glossary On
Versions: 1 2 3 4 5 6 7 8 9 10 11 12 13 14 15 16 17 18 19 20 21 22
000
FTUS43 KFSD 301729
TAFFSD
TAF
KFSD 301729Z 3018/0118 13014G22KT P6SM -SHRA SCT007 OVC090
     FM302000 14014G25KT P6SM SCT015 BKN150
     FM010000 15013KT P6SM OVC012
     FM011600 18007KT P6SM SCT012 OVC090=

USA.gov is the U.S. government's official web portal to all federal, state and local government web resources and services.